Time;durP1;ratioP1;P1;durP2;ratioP2;P2;SDS_P1;SDS_P2;PMS_P1;PMS_P2;Temp;Humidity;BMP_temperature;BMP_pressure;BME280_temperature;BME280_humidity;BME280_pressure;Samples;Min_cycle;Max_cycle;Signal;HPM_P1;HPM_P2
2023/06/02 00:02:10;;;;;;;12.65;7.30;;;;;;;16.83;100.00;99999.38;5586515;31;33526;-68
2023/06/02 00:05:18;;;;;;;12.55;7.37;;;;;;;16.89;100.00;99993.97;5586732;31;33651;-68
2023/06/02 00:08:28;;;;;;;11.35;6.75;;;;;;;16.85;100.00;99995.44;5586337;31;34594;-68
2023/06/02 00:11:40;;;;;;;14.75;7.22;;;;;;;16.80;100.00;99997.94;5586132;31;33837;-68
2023/06/02 00:14:48;;;;;;;11.27;6.90;;;;;;;16.78;100.00;99989.31;5585520;31;33597;-68
2023/06/02 00:17:53;;;;;;;10.05;6.93;;;;;;;16.77;100.00;99987.69;5585292;31;34259;-69
2023/06/02 00:20:58;;;;;;;12.88;6.90;;;;;;;16.69;100.00;99987.94;5586163;31;33948;-68
2023/06/02 00:24:06;;;;;;;10.48;6.12;;;;;;;16.71;100.00;99993.06;5585503;31;34120;-68
2023/06/02 00:27:13;;;;;;;12.15;6.97;;;;;;;16.95;100.00;99981.56;5586145;31;33821;-68
2023/06/02 00:30:22;;;;;;;12.70;7.05;;;;;;;16.98;100.00;99991.84;5586472;31;33964;-68
2023/06/02 00:33:27;;;;;;;14.52;6.55;;;;;;;16.92;100.00;99982.00;5585936;31;34599;-68
2023/06/02 00:36:33;;;;;;;13.98;7.07;;;;;;;16.85;100.00;99987.41;5585117;31;33657;-68
2023/06/02 00:39:41;;;;;;;11.93;6.43;;;;;;;16.76;100.00;99991.38;5585880;31;33578;-68
2023/06/02 00:42:47;;;;;;;10.65;6.55;;;;;;;16.66;100.00;99982.19;5585700;31;34778;-68
2023/06/02 00:45:53;;;;;;;12.52;6.82;;;;;;;16.55;100.00;99985.56;5585686;31;33872;-68
2023/06/02 00:49:01;;;;;;;11.10;6.90;;;;;;;16.47;100.00;99981.25;5585538;31;34819;-69
2023/06/02 00:52:08;;;;;;;11.20;6.70;;;;;;;16.53;100.00;99983.06;5584761;31;34086;-68
2023/06/02 00:55:14;;;;;;;10.65;6.10;;;;;;;16.46;100.00;99979.59;5585573;31;34140;-68
2023/06/02 00:58:21;;;;;;;9.45;6.43;;;;;;;16.39;100.00;99982.34;5584622;31;33813;-68
2023/06/02 01:01:29;;;;;;;14.80;6.47;;;;;;;16.48;100.00;99974.88;5585352;31;34465;-68
2023/06/02 01:04:40;;;;;;;14.50;6.47;;;;;;;16.52;100.00;99976.06;5585480;31;33744;-68
2023/06/02 01:07:51;;;;;;;10.68;6.28;;;;;;;16.64;100.00;99978.91;5585398;31;33639;-68
2023/06/02 01:10:58;;;;;;;11.50;6.53;;;;;;;16.53;100.00;99980.41;5585108;31;34552;-68
2023/06/02 01:14:05;;;;;;;13.62;6.30;;;;;;;16.49;100.00;99982.69;5585478;31;34056;-68
2023/06/02 01:17:13;;;;;;;14.93;6.80;;;;;;;16.39;100.00;99979.66;5585043;31;33851;-68
2023/06/02 01:20:24;;;;;;;10.48;6.75;;;;;;;16.20;100.00;99982.44;5585033;31;34338;-68
2023/06/02 01:23:37;;;;;;;10.63;6.55;;;;;;;16.06;100.00;99971.00;5584859;31;33929;-67
2023/06/02 01:26:43;;;;;;;10.15;6.32;;;;;;;15.96;100.00;99978.66;5585567;31;35114;-67
2023/06/02 01:29:52;;;;;;;9.35;6.03;;;;;;;15.87;100.00;99969.22;5587858;31;34568;-67
2023/06/02 01:33:07;;;;;;;9.55;6.22;;;;;;;15.77;100.00;99969.69;5587674;31;34332;-67
2023/06/02 01:36:18;;;;;;;11.85;5.95;;;;;;;15.69;100.00;99975.25;5587840;31;34085;-67
2023/06/02 01:39:27;;;;;;;10.63;6.15;;;;;;;15.60;100.00;99973.81;5587810;31;33989;-68
2023/06/02 01:42:34;;;;;;;11.70;6.32;;;;;;;15.53;100.00;99975.72;5587764;31;34578;-67
2023/06/02 01:45:42;;;;;;;10.23;5.97;;;;;;;15.47;100.00;99973.84;5586825;31;33884;-67
2023/06/02 01:48:53;;;;;;;12.50;6.65;;;;;;;15.46;100.00;99970.34;5587727;31;33829;-67
2023/06/02 01:52:01;;;;;;;8.90;6.60;;;;;;;15.40;100.00;99981.03;5587613;31;33841;-67
2023/06/02 01:55:10;;;;;;;11.90;6.55;;;;;;;15.48;100.00;99979.00;5587766;31;34680;-67
2023/06/02 01:58:20;;;;;;;10.95;6.60;;;;;;;15.60;100.00;99977.31;5587608;31;34413;-67
2023/06/02 02:01:27;;;;;;;9.75;7.03;;;;;;;15.51;100.00;99983.09;5587729;31;33630;-67
2023/06/02 02:04:33;;;;;;;14.70;6.55;;;;;;;15.49;100.00;99983.28;5587603;31;33629;-67
2023/06/02 02:07:41;;;;;;;11.77;6.95;;;;;;;15.56;100.00;99983.31;5587530;31;34395;-67
2023/06/02 02:10:48;;;;;;;16.85;6.40;;;;;;;15.46;100.00;99977.53;5587494;31;33551;-68
2023/06/02 02:13:52;;;;;;;10.00;6.22;;;;;;;15.28;100.00;99967.50;5587491;31;33979;-67
2023/06/02 02:17:00;;;;;;;12.02;6.70;;;;;;;15.23;100.00;99969.97;5587928;31;33755;-67
2023/06/02 02:20:06;;;;;;;13.88;6.68;;;;;;;15.11;100.00;99969.78;5586604;31;33773;-67
2023/06/02 02:23:13;;;;;;;13.68;6.70;;;;;;;15.36;100.00;99969.13;5587423;31;33714;-67
2023/06/02 02:26:21;;;;;;;13.35;6.70;;;;;;;15.36;100.00;99963.78;5587401;31;33547;-67
2023/06/02 02:29:29;;;;;;;10.70;6.53;;;;;;;15.34;100.00;99968.53;5586792;31;34828;-67
2023/06/02 02:32:40;;;;;;;11.65;6.80;;;;;;;15.20;100.00;99963.19;5586320;31;34128;-67
2023/06/02 02:35:48;;;;;;;11.98;7.05;;;;;;;15.08;100.00;99967.53;5587314;31;33800;-67
2023/06/02 02:38:55;;;;;;;11.43;6.60;;;;;;;14.99;100.00;99970.63;5586590;31;34588;-67
2023/06/02 02:42:03;;;;;;;10.07;6.90;;;;;;;14.94;100.00;99971.22;5587349;31;33826;-67
2023/06/02 02:45:10;;;;;;;12.93;6.78;;;;;;;14.83;100.00;99971.84;5587262;31;34436;-67
2023/06/02 02:48:18;;;;;;;11.20;6.80;;;;;;;14.79;100.00;99968.75;5586311;31;33886;-67
2023/06/02 02:51:24;;;;;;;9.43;6.68;;;;;;;14.76;100.00;99963.03;5587038;31;33818;-67
2023/06/02 02:54:32;;;;;;;10.23;6.85;;;;;;;14.82;100.00;99956.84;5587565;31;34603;-69
2023/06/02 02:57:40;;;;;;;10.18;6.28;;;;;;;14.86;100.00;99965.28;5587152;31;34464;-68
2023/06/02 03:00:47;;;;;;;9.52;6.60;;;;;;;14.82;100.00;99956.84;5586939;31;34015;-68
2023/06/02 03:03:56;;;;;;;11.05;7.05;;;;;;;14.81;100.00;99965.06;5586289;31;33857;-68
2023/06/02 03:07:04;;;;;;;;;;;;;;;14.78;100.00;99964.44;5587522;31;33894;-68
2023/06/02 03:10:11;;;;;;;10.18;6.57;;;;;;;14.80;100.00;99956.25;5586959;31;34864;-68
2023/06/02 03:13:20;;;;;;;9.02;6.85;;;;;;;15.10;100.00;99962.78;5587223;31;33860;-68
2023/06/02 03:16:28;;;;;;;13.00;7.57;;;;;;;15.34;100.00;99972.03;5587048;31;34030;-68
2023/06/02 03:19:36;;;;;;;13.43;7.18;;;;;;;15.43;100.00;99964.59;5587044;31;33731;-69
2023/06/02 03:22:43;;;;;;;9.30;6.78;;;;;;;15.36;100.00;99961.94;5586916;31;34862;-68
2023/06/02 03:25:51;;;;;;;17.55;7.50;;;;;;;15.31;100.00;99966.25;5586869;31;34106;-69
2023/06/02 03:28:58;;;;;;;13.02;7.72;;;;;;;15.26;100.00;99966.88;5586832;31;34877;-68
2023/06/02 03:32:09;;;;;;;15.82;6.70;;;;;;;15.25;100.00;99964.44;5586722;31;34189;-69
2023/06/02 03:35:14;;;;;;;10.00;7.07;;;;;;;15.20;100.00;99960.50;5586872;31;34056;-69
2023/06/02 03:38:21;;;;;;;12.40;6.85;;;;;;;15.23;100.00;99965.47;5586801;31;33995;-66
2023/06/02 03:41:27;;;;;;;16.70;7.07;;;;;;;15.26;100.00;99966.06;5586718;31;33948;-67
2023/06/02 03:44:37;;;;;;;15.13;7.30;;;;;;;15.32;100.00;99967.91;5586707;31;34408;-67
2023/06/02 03:47:45;;;;;;;13.32;7.35;;;;;;;15.44;100.00;99972.38;5586771;31;33551;-67
2023/06/02 03:50:52;;;;;;;11.07;7.05;;;;;;;15.53;100.00;99973.03;5585361;31;33654;-67
2023/06/02 03:54:01;;;;;;;11.98;7.70;;;;;;;15.62;100.00;99969.94;5586553;31;33892;-66
2023/06/02 03:57:09;;;;;;;12.82;7.15;;;;;;;15.70;100.00;99976.88;5586510;31;33704;-67
2023/06/02 04:00:17;;;;;;;12.48;7.25;;;;;;;15.75;100.00;99973.56;5586502;31;33639;-67
2023/06/02 04:03:25;;;;;;;12.82;7.57;;;;;;;15.81;100.00;99973.56;5586155;31;34219;-67
2023/06/02 04:06:31;;;;;;;13.62;7.45;;;;;;;15.92;100.00;99972.09;5586485;31;34158;-67
2023/06/02 04:09:37;;;;;;;15.10;7.43;;;;;;;16.02;100.00;99980.50;5586558;31;34336;-67
2023/06/02 04:12:46;;;;;;;15.25;7.97;;;;;;;16.11;100.00;99971.19;5586213;31;33784;-67
2023/06/02 04:15:54;;;;;;;11.27;7.30;;;;;;;16.24;100.00;99976.47;5586189;31;34033;-67
2023/06/02 04:19:05;;;;;;;18.60;8.00;;;;;;;16.40;100.00;99981.31;5586158;31;33707;-66
2023/06/02 04:22:12;;;;;;;17.40;8.05;;;;;;;16.61;100.00;99982.00;5586082;31;33989;-65
2023/06/02 04:25:18;;;;;;;16.17;7.93;;;;;;;16.89;100.00;99980.56;5586055;31;33499;-67
2023/06/02 04:28:25;;;;;;;14.43;7.78;;;;;;;16.86;100.00;99978.34;5585974;31;34415;-66
2023/06/02 04:31:45;;;;;;;10.50;6.82;;;;;;;16.99;100.00;99982.78;5586072;31;33744;-66
2023/06/02 04:34:50;;;;;;;20.65;7.82;;;;;;;17.01;100.00;99977.19;5585643;31;34821;-66
2023/06/02 04:37:57;;;;;;;16.77;7.30;;;;;;;17.11;100.00;99978.34;5584950;31;33960;-67
2023/06/02 04:41:05;;;;;;;15.75;7.28;;;;;;;17.20;100.00;99968.16;5585656;31;34461;-67
2023/06/02 04:44:10;;;;;;;15.77;7.62;;;;;;;17.36;100.00;99973.78;5584746;31;34127;-66
2023/06/02 04:47:16;;;;;;;15.48;7.62;;;;;;;17.46;100.00;99972.44;5585995;31;34486;-66
2023/06/02 04:50:21;;;;;;;17.73;7.72;;;;;;;17.67;100.00;99975.50;5585600;31;33623;-67
2023/06/02 04:53:26;;;;;;;19.12;7.25;;;;;;;17.81;100.00;99977.00;5585486;31;33803;-66
2023/06/02 04:56:35;;;;;;;15.57;8.07;;;;;;;17.97;100.00;99970.22;5586145;31;33765;-66
2023/06/02 04:59:43;;;;;;;13.48;7.93;;;;;;;18.12;100.00;99976.00;5582501;31;33559;-66
2023/06/02 05:02:47;;;;;;;13.07;7.60;;;;;;;18.24;100.00;99970.69;5574444;31;34323;-66
2023/06/02 05:05:53;;;;;;;12.32;7.75;;;;;;;18.25;100.00;99975.00;5586968;31;33964;-66
2023/06/02 05:08:58;;;;;;;13.20;7.60;;;;;;;18.39;100.00;99973.81;5588200;31;33831;-66
2023/06/02 05:12:03;;;;;;;21.40;7.80;;;;;;;18.50;100.00;99964.94;5587390;31;34489;-66
2023/06/02 05:15:08;;;;;;;16.10;7.75;;;;;;;18.66;100.00;99972.38;5587006;31;33641;-66
2023/06/02 05:18:14;;;;;;;17.73;7.50;;;;;;;18.78;100.00;99977.78;5586998;31;33865;-66
2023/06/02 05:21:19;;;;;;;14.82;7.53;;;;;;;18.95;100.00;99973.38;5576151;31;34450;-66
2023/06/02 05:24:24;;;;;;;14.95;7.82;;;;;;;19.16;100.00;99972.00;5568143;31;34113;-66
2023/06/02 05:27:28;;;;;;;16.23;8.20;;;;;;;19.29;100.00;99973.62;5587518;31;33992;-66
2023/06/02 05:30:33;;;;;;;13.62;7.50;;;;;;;19.40;100.00;99970.09;5578365;31;34474;-66
2023/06/02 05:33:37;;;;;;;18.33;8.05;;;;;;;19.57;100.00;99976.44;5575830;31;33937;-66
2023/06/02 05:36:41;;;;;;;14.40;7.53;;;;;;;19.77;100.00;99971.47;5566245;31;32312;-68
2023/06/02 05:39:45;;;;;;;21.30;7.35;;;;;;;19.97;100.00;99981.84;5572559;31;34383;-68
2023/06/02 05:42:49;;;;;;;16.05;7.78;;;;;;;20.13;100.00;99974.91;5584382;31;34491;-67
2023/06/02 05:45:53;;;;;;;15.35;7.65;;;;;;;20.32;100.00;99973.69;5587284;31;33888;-68
2023/06/02 05:48:57;;;;;;;17.55;8.18;;;;;;;20.49;100.00;99977.22;5586862;31;34174;-69
2023/06/02 05:52:02;;;;;;;17.92;8.10;;;;;;;20.67;100.00;99977.00;5587141;31;34050;-67
2023/06/02 05:55:07;;;;;;;17.65;8.10;;;;;;;20.82;100.00;99981.84;5578553;31;33758;-66
2023/06/02 05:58:11;;;;;;;15.18;7.60;;;;;;;20.96;100.00;99979.66;5567775;31;34338;-67
2023/06/02 06:01:14;;;;;;;14.18;7.60;;;;;;;21.21;100.00;99978.19;5569993;31;33937;-67
2023/06/02 06:04:18;;;;;;;19.55;8.45;;;;;;;21.14;100.00;99972.16;5583982;31;33987;-68
2023/06/02 06:07:21;;;;;;;24.10;7.65;;;;;;;21.32;98.33;99971.06;5586242;31;34608;-67
2023/06/02 06:10:25;;;;;;;17.25;7.60;;;;;;;21.46;96.32;99971.53;5585993;31;34571;-67
2023/06/02 06:13:29;;;;;;;22.92;7.87;;;;;;;21.49;97.79;99974.56;5585546;31;33484;-67
2023/06/02 06:16:33;;;;;;;19.77;7.78;;;;;;;21.39;100.00;99982.53;5575534;31;34281;-67
2023/06/02 06:19:37;;;;;;;16.27;7.15;;;;;;;21.25;96.73;99979.31;5576453;31;33913;-65
2023/06/02 06:22:43;;;;;;;16.12;7.30;;;;;;;21.35;99.95;99983.25;5579260;31;33735;-66
2023/06/02 06:25:46;;;;;;;16.45;7.45;;;;;;;21.29;100.00;99976.16;5568044;31;33826;-66
2023/06/02 06:28:50;;;;;;;19.05;7.78;;;;;;;21.39;96.01;99979.00;5580510;31;33898;-67
2023/06/02 06:31:53;;;;;;;15.02;7.90;;;;;;;21.56;95.89;99979.75;5586665;31;34515;-67
2023/06/02 06:34:57;;;;;;;20.50;7.25;;;;;;;21.97;93.13;99979.28;5577131;31;34407;-66
2023/06/02 06:38:01;;;;;;;16.58;7.30;;;;;;;22.30;87.98;99980.16;5573801;31;33980;-67
2023/06/02 06:41:05;;;;;;;11.90;7.10;;;;;;;22.53;89.41;99985.28;5581035;31;33732;-66
2023/06/02 06:44:10;;;;;;;13.27;7.30;;;;;;;22.87;86.96;99983.19;5579547;31;33592;-66
2023/06/02 06:47:15;;;;;;;14.48;6.75;;;;;;;23.21;79.14;99984.53;5571605;31;34323;-65
2023/06/02 06:50:21;;;;;;;12.48;6.78;;;;;;;23.30;78.11;99988.38;5580778;31;33832;-66
2023/06/02 06:53:26;;;;;;;12.73;6.30;;;;;;;23.43;75.77;99983.59;5584888;31;34422;-66
2023/06/02 06:56:29;;;;;;;16.23;6.60;;;;;;;23.63;75.20;99992.66;5583300;31;33757;-67
2023/06/02 06:59:33;;;;;;;11.00;6.40;;;;;;;23.35;77.38;99993.00;5572751;31;34462;-66
2023/06/02 07:02:37;;;;;;;14.87;5.93;;;;;;;23.55;76.43;99992.34;5573229;31;33676;-67
2023/06/02 07:05:42;;;;;;;12.82;6.45;;;;;;;23.74;74.29;99988.13;5580533;31;33787;-68
2023/06/02 07:08:45;;;;;;;15.70;6.82;;;;;;;24.17;72.10;99985.09;5569526;31;34162;-67
2023/06/02 07:11:49;;;;;;;11.23;6.55;;;;;;;24.59;67.61;99978.69;5566751;32;35174;-66
2023/06/02 07:14:54;;;;;;;12.85;5.95;;;;;;;24.69;66.41;99990.34;5566822;32;34535;-66
2023/06/02 07:17:57;;;;;;;17.23;6.47;;;;;;;24.92;67.18;99989.03;5567185;32;34862;-66
2023/06/02 07:21:00;;;;;;;15.77;6.15;;;;;;;25.30;65.61;99989.56;5566612;32;34609;-66
2023/06/02 07:24:03;;;;;;;21.60;6.75;;;;;;;25.70;62.50;99988.69;5567278;32;33900;-66
2023/06/02 07:27:06;;;;;;;16.52;6.12;;;;;;;26.05;61.71;99982.28;5568588;31;34270;-67
2023/06/02 07:30:10;;;;;;;12.55;5.97;;;;;;;26.53;59.73;99970.59;5586466;31;34050;-66
2023/06/02 07:33:12;;;;;;;13.82;6.18;;;;;;;26.74;57.19;99974.81;5586241;31;34184;-67
2023/06/02 07:36:15;;;;;;;16.05;6.28;;;;;;;27.09;56.11;99979.19;5557889;31;33894;-67
2023/06/02 07:39:19;;;;;;;14.95;5.90;;;;;;;26.48;56.14;99978.81;5549483;31;33991;-67
2023/06/02 07:42:22;;;;;;;14.02;5.47;;;;;;;26.82;55.15;99967.94;5561904;31;33672;-67
2023/06/02 07:45:25;;;;;;;13.93;5.68;;;;;;;28.03;52.99;99971.37;5563405;31;33915;-67
2023/06/02 07:48:29;;;;;;;18.98;6.20;;;;;;;28.48;50.35;99973.47;5533038;31;930646;-67
2023/06/02 07:51:33;;;;;;;18.75;5.80;;;;;;;28.23;51.42;99971.13;5560374;31;33901;-66
2023/06/02 07:54:38;;;;;;;32.88;6.53;;;;;;;26.69;51.47;99977.56;5576659;31;33988;-66
2023/06/02 07:57:41;;;;;;;25.15;5.68;;;;;;;26.03;55.53;99981.75;5562376;31;33967;-67
2023/06/02 08:00:45;;;;;;;13.73;6.65;;;;;;;25.20;56.99;99968.66;5564487;31;34096;-68
2023/06/02 08:03:48;;;;;;;14.57;5.62;;;;;;;24.98;58.24;99979.00;5562156;31;33816;-68
2023/06/02 08:06:55;;;;;;;76.62;8.25;;;;;;;24.79;59.23;99973.25;5561920;31;33890;-67
2023/06/02 08:09:58;;;;;;;28.73;5.85;;;;;;;25.02;63.45;99980.09;5560938;31;34366;-68
2023/06/02 08:13:01;;;;;;;11.18;5.25;;;;;;;26.47;56.78;99960.06;5565726;32;34349;-68
2023/06/02 08:16:05;;;;;;;8.82;5.05;;;;;;;27.49;51.96;99969.84;5575159;31;34393;-68
2023/06/02 08:19:13;;;;;;;22.02;5.65;;;;;;;28.16;50.55;99967.97;5576333;31;34613;-68
2023/06/02 08:22:18;;;;;;;9.02;4.95;;;;;;;29.35;48.22;99968.25;5585255;31;35139;-68
2023/06/02 08:25:22;;;;;;;13.55;5.00;;;;;;;30.29;45.26;99969.66;5585443;31;33880;-69
2023/06/02 08:28:29;;;;;;;7.32;4.90;;;;;;;30.30;43.26;99965.81;5585292;31;33832;-69
2023/06/02 08:31:34;;;;;;;14.23;4.70;;;;;;;31.37;40.93;99965.63;5585406;31;34499;-69
2023/06/02 08:34:41;;;;;;;16.58;4.45;;;;;;;32.00;40.13;99961.66;5584824;31;34239;-69
2023/06/02 08:37:44;;;;;;;9.70;4.87;;;;;;;33.66;36.32;99964.75;5585456;31;34254;-69
2023/06/02 08:40:48;;;;;;;7.90;4.85;;;;;;;32.84;35.93;99961.28;5583243;31;34214;-68
2023/06/02 08:43:52;;;;;;;6.85;4.40;;;;;;;32.57;36.31;99956.09;5587381;31;33660;-69
2023/06/02 08:46:59;;;;;;;12.20;4.72;;;;;;;30.29;40.78;99950.50;5586733;31;33760;-70
2023/06/02 08:50:02;;;;;;;13.20;4.60;;;;;;;29.06;42.90;99956.75;5587039;31;33973;-69
2023/06/02 08:53:10;;;;;;;10.02;4.50;;;;;;;29.29;42.41;99952.22;5580170;31;33847;-72
2023/06/02 08:56:15;;;;;;;10.90;4.80;;;;;;;28.21;44.79;99951.53;5578912;31;33843;-68
2023/06/02 08:59:20;;;;;;;10.98;4.80;;;;;;;27.43;47.23;99941.00;5571436;31;33830;-69
2023/06/02 09:02:24;;;;;;;13.40;4.40;;;;;;;27.09;45.91;99930.19;5572263;31;33754;-67
2023/06/02 09:05:28;;;;;;;7.50;4.40;;;;;;;27.92;44.74;99926.25;5585568;31;34497;-67
2023/06/02 09:08:32;;;;;;;9.43;4.43;;;;;;;29.09;43.84;99928.84;5572194;31;33862;-68
2023/06/02 09:11:39;;;;;;;12.32;4.53;;;;;;;29.44;41.38;99929.28;5582380;31;33955;-69
2023/06/02 09:14:42;;;;;;;10.10;4.47;;;;;;;29.41;40.33;99936.19;5577480;31;34271;-68
2023/06/02 09:17:45;;;;;;;15.23;4.65;;;;;;;29.98;38.74;99925.72;5582659;31;34465;-68
2023/06/02 09:20:50;;;;;;;7.47;4.40;;;;;;;29.42;39.23;99926.88;5578739;31;34263;-67
2023/06/02 09:23:56;;;;;;;11.85;4.60;;;;;;;28.72;41.73;99927.00;5570321;31;33507;-69
2023/06/02 09:27:18;;;;;;;9.50;4.78;;;;;;;28.01;43.60;99927.22;5574389;31;33675;-66
2023/06/02 09:30:26;;;;;;;8.55;4.60;;;;;;;26.62;44.51;99919.16;5577287;31;33820;-69
2023/06/02 09:33:35;;;;;;;8.70;4.18;;;;;;;27.47;41.95;99912.06;5585587;31;34560;-70
2023/06/02 09:36:40;;;;;;;9.65;4.57;;;;;;;30.33;38.23;99915.91;5578252;31;34947;-70
2023/06/02 09:39:52;;;;;;;28.17;5.50;;;;;;;32.80;33.99;99921.84;5574066;31;34005;-69
2023/06/02 09:42:55;;;;;;;7.87;3.92;;;;;;;32.77;34.00;99917.81;5579499;31;34924;-69
2023/06/02 09:46:00;;;;;;;7.57;4.03;;;;;;;30.78;36.17;99925.00;5578243;31;34816;-71
2023/06/02 09:49:06;;;;;;;5.50;3.80;;;;;;;29.23;38.90;99918.75;5574450;31;33546;-70
2023/06/02 09:52:14;;;;;;;7.78;3.97;;;;;;;28.32;41.66;99911.28;5567287;32;33922;-69
2023/06/02 09:55:19;;;;;;;10.57;4.22;;;;;;;28.20;40.28;99921.81;5574155;31;35219;-69
2023/06/02 09:58:23;;;;;;;5.68;3.75;;;;;;;26.96;43.68;99919.97;5570944;32;33918;-69
2023/06/02 10:01:35;;;;;;;30.10;4.50;;;;;;;26.34;42.76;99918.78;5574045;31;31781;-69
2023/06/02 10:04:39;;;;;;;9.70;3.70;;;;;;;25.56;41.52;99936.03;5586306;31;34406;-69
2023/06/02 10:08:33;;;;;;;10.82;3.65;;;;;;;24.66;43.79;99944.78;5583915;31;33798;-69
2023/06/02 10:11:43;;;;;;;8.38;4.00;;;;;;;24.38;45.41;99945.28;5552516;31;33591;-65
2023/06/02 10:14:52;;;;;;;10.32;4.60;;;;;;;23.47;51.24;99942.25;5577422;31;34086;-68
2023/06/02 10:18:22;;;;;;;8.95;4.10;;;;;;;22.97;53.29;99939.97;5568053;32;33290;-68
2023/06/02 10:21:47;;;;;;;10.70;4.03;;;;;;;22.33;54.78;99942.63;5567331;32;34279;-70
2023/06/02 10:25:10;;;;;;;10.40;4.28;;;;;;;22.03;58.76;99936.91;5567456;32;34300;-70
2023/06/02 10:28:14;;;;;;;14.87;3.90;;;;;;;20.77;75.11;99942.13;5566387;32;33791;-69
2023/06/02 10:31:33;;;;;;;20.98;5.05;;;;;;;19.76;79.75;99952.88;5572222;31;34555;-69
2023/06/02 10:34:38;;;;;;;8.10;4.10;;;;;;;19.71;96.49;99956.28;5576057;31;33969;-69
2023/06/02 10:37:42;;;;;;;9.15;4.43;;;;;;;19.97;98.78;99952.25;5574446;31;34928;-70
2023/06/02 10:40:49;;;;;;;15.38;5.00;;;;;;;20.51;92.23;99961.66;5575739;31;33968;-69
2023/06/02 10:44:22;;;;;;;12.20;5.00;;;;;;;21.20;87.31;99959.56;5564132;31;33832;-69
2023/06/02 10:47:25;;;;;;;10.55;5.05;;;;;;;21.98;74.89;99950.34;5568331;31;34996;-69
2023/06/02 10:50:51;;;;;;;11.90;5.15;;;;;;;22.31;74.69;99941.28;5586151;31;33729;-69
2023/06/02 10:54:04;;;;;;;13.77;4.55;;;;;;;23.04;73.73;99928.94;5585922;31;34587;-70
2023/06/02 10:57:09;;;;;;;8.90;4.12;;;;;;;26.50;54.86;99924.13;5586711;31;33786;-70
2023/06/02 11:00:32;;;;;;;9.93;4.03;;;;;;;29.61;46.13;99921.31;5585059;31;33830;-70
2023/06/02 11:03:36;;;;;;;6.95;3.85;;;;;;;29.92;39.53;99910.56;5586732;31;33876;-70
2023/06/02 11:06:40;;;;;;;7.62;3.85;;;;;;;32.76;36.73;99915.41;5573549;31;33841;-70
2023/06/02 11:09:45;;;;;;;6.05;3.47;;;;;;;35.82;30.02;99914.81;5566225;32;34128;-71
2023/06/02 11:12:51;;;;;;;6.65;3.17;;;;;;;36.24;28.79;99913.38;5565573;32;33870;-70
2023/06/02 11:15:54;;;;;;;11.70;3.85;;;;;;;36.33;27.49;99900.22;5565951;32;34251;-71
2023/06/02 11:18:57;;;;;;;4.85;3.10;;;;;;;36.87;26.28;99900.56;5568669;31;34283;-70
2023/06/02 11:22:04;;;;;;;8.93;3.28;;;;;;;34.40;28.65;99907.16;5572851;31;33692;-69
2023/06/02 11:25:09;;;;;;;7.70;3.20;;;;;;;31.64;32.68;99906.25;5581906;31;33789;-70
2023/06/02 11:28:22;;;;;;;7.60;3.90;;;;;;;29.27;37.20;99913.47;5570395;31;33989;-69
2023/06/02 11:31:25;;;;;;;9.82;3.75;;;;;;;28.08;38.31;99920.28;5576969;31;34590;-69
2023/06/02 11:34:29;;;;;;;9.23;3.90;;;;;;;27.44;39.91;99920.81;5580197;31;32381;-69
2023/06/02 11:37:33;;;;;;;12.10;4.10;;;;;;;26.28;43.14;99916.41;5578225;31;33807;-69
2023/06/02 11:40:37;;;;;;;8.60;3.85;;;;;;;25.95;45.41;99920.62;5573951;31;33821;-69
2023/06/02 11:43:43;;;;;;;13.18;4.22;;;;;;;25.77;48.91;99915.81;5574661;31;34738;-69
2023/06/02 11:46:48;;;;;;;6.80;4.30;;;;;;;25.62;48.10;99924.84;5572799;31;35109;-73
2023/06/02 11:49:51;;;;;;;9.75;5.03;;;;;;;24.99;48.43;99950.75;5585682;31;34003;-69
2023/06/02 11:52:55;;;;;;;10.73;4.62;;;;;;;24.45;52.83;99961.28;5583392;31;34499;-68
2023/06/02 11:55:59;;;;;;;12.07;4.78;;;;;;;23.95;59.43;99951.94;5560754;31;33879;-69
2023/06/02 11:59:02;;;;;;;9.15;4.47;;;;;;;23.72;67.03;99936.91;5575994;31;33956;-69
2023/06/02 12:02:23;;;;;;;8.85;4.97;;;;;;;23.50;70.76;99932.75;5580251;31;33691;-68
2023/06/02 12:05:34;;;;;;;11.95;4.72;;;;;;;23.36;71.90;99932.37;5582620;31;34502;-69
2023/06/02 12:08:37;;;;;;;10.07;5.10;;;;;;;23.10;73.88;99936.00;5585556;31;33749;-68
2023/06/02 12:11:40;;;;;;;12.95;5.87;;;;;;;22.95;77.47;99934.81;5584812;31;34138;-71
2023/06/02 12:14:43;;;;;;;9.63;5.35;;;;;;;22.73;81.61;99928.72;5578554;31;33665;-69
2023/06/02 12:17:47;;;;;;;11.38;4.68;;;;;;;22.35;85.58;99928.88;5565792;32;33967;-69
2023/06/02 12:20:51;;;;;;;9.13;5.00;;;;;;;22.37;85.68;99915.91;5566411;31;33783;-68
2023/06/02 12:23:58;;;;;;;8.32;4.70;;;;;;;22.56;83.75;99910.97;5565972;31;33815;-69
2023/06/02 12:27:01;;;;;;;8.65;5.00;;;;;;;22.72;76.79;99900.03;5566042;31;33785;-70
2023/06/02 12:30:05;;;;;;;9.85;4.53;;;;;;;22.83;69.74;99896.34;5577065;31;34546;-69
2023/06/02 12:33:10;;;;;;;7.85;4.32;;;;;;;23.55;64.47;99903.81;5567714;31;33957;-68
2023/06/02 12:36:14;;;;;;;7.30;3.95;;;;;;;25.23;53.38;99894.81;5567772;31;34582;-69
2023/06/02 12:39:17;;;;;;;6.60;4.12;;;;;;;27.14;46.45;99888.47;5566347;31;34885;-70
2023/06/02 12:42:21;;;;;;;7.07;3.53;;;;;;;28.74;42.22;99885.78;5568519;31;34490;-70
2023/06/02 12:45:24;;;;;;;8.82;3.83;;;;;;;29.74;39.34;99877.53;5583160;31;34160;-72
2023/06/02 12:48:30;;;;;;;8.45;3.60;;;;;;;30.97;36.39;99876.28;5566199;31;34732;-72
2023/06/02 12:51:35;;;;;;;4.60;3.42;;;;;;;30.69;36.82;99867.44;5564936;32;34007;-70
2023/06/02 12:54:40;;;;;;;5.43;3.55;;;;;;;33.18;31.92;99865.00;5576601;31;34196;-71
2023/06/02 12:57:46;;;;;;;7.05;3.37;;;;;;;36.22;28.00;99876.19;5572425;31;34123;-71
2023/06/02 13:00:50;;;;;;;9.35;3.28;;;;;;;39.30;23.48;99863.87;5567346;31;34059;-70
2023/06/02 13:03:55;;;;;;;4.72;3.12;;;;;;;37.53;24.36;99869.44;5571675;31;34350;-71
2023/06/02 13:07:06;;;;;;;5.10;3.17;;;;;;;38.95;22.92;99866.84;5580208;31;34033;-70
2023/06/02 13:10:11;;;;;;;6.53;3.25;;;;;;;41.18;21.10;99867.84;5572357;31;34054;-71
2023/06/02 13:13:17;;;;;;;12.27;3.30;;;;;;;40.96;21.24;99856.87;5576872;31;34507;-71
2023/06/02 13:16:21;;;;;;;4.07;3.00;;;;;;;40.71;22.30;99849.13;5584534;31;33753;-72
2023/06/02 13:19:25;;;;;;;7.12;2.87;;;;;;;39.50;24.11;99835.66;5580338;31;34565;-71
2023/06/02 13:22:29;;;;;;;3.75;2.37;;;;;;;41.92;20.70;99844.47;5574006;31;33389;-70
2023/06/02 13:25:34;;;;;;;4.75;3.00;;;;;;;41.69;19.13;99847.50;5571298;31;33835;-69
2023/06/02 13:28:37;;;;;;;5.10;2.60;;;;;;;41.18;19.12;99839.19;5573166;31;34542;-72
2023/06/02 13:31:41;;;;;;;7.22;3.10;;;;;;;37.41;22.98;99828.00;5583211;31;34306;-71
2023/06/02 13:34:58;;;;;;;14.98;3.08;;;;;;;39.82;20.47;99829.75;5587307;31;33836;-71
2023/06/02 13:38:03;;;;;;;8.68;2.95;;;;;;;40.40;21.04;99824.53;5581301;31;33859;-70
2023/06/02 13:41:05;;;;;;;6.50;2.53;;;;;;;39.76;21.14;99825.72;5581563;31;33821;-73
2023/06/02 13:44:16;;;;;;;6.53;2.55;;;;;;;40.80;19.83;99834.88;5587003;31;34633;-72
2023/06/02 13:47:22;;;;;;;10.13;2.65;;;;;;;39.03;21.87;99822.22;5586162;31;34916;-71
2023/06/02 13:50:26;;;;;;;4.72;2.53;;;;;;;42.25;18.55;99823.88;5584502;31;33807;-72
2023/06/02 13:53:30;;;;;;;5.70;2.90;;;;;;;41.83;18.91;99819.69;5578970;31;34111;-72
2023/06/02 13:56:35;;;;;;;5.20;2.53;;;;;;;39.88;20.51;99817.16;5574732;31;33792;-72
2023/06/02 13:59:40;;;;;;;38.10;3.17;;;;;;;43.05;18.40;99819.63;5585351;31;33692;-71
2023/06/02 14:02:46;;;;;;;7.25;2.35;;;;;;;41.13;18.50;99826.44;5571944;31;33941;-71
2023/06/02 14:05:51;;;;;;;5.53;2.00;;;;;;;40.07;17.64;99821.75;5575356;31;34690;-72
2023/06/02 14:08:55;;;;;;;5.37;2.22;;;;;;;39.69;17.43;99817.28;5584826;31;33605;-72
2023/06/02 14:12:00;;;;;;;6.25;2.25;;;;;;;36.65;19.43;99809.13;5572098;31;32628;-70
2023/06/02 14:15:04;;;;;;;5.87;2.17;;;;;;;36.88;18.72;99810.91;5579812;31;33811;-71
2023/06/02 14:18:08;;;;;;;5.75;2.10;;;;;;;37.67;18.74;99810.81;5577203;31;33897;-71
2023/06/02 14:21:14;;;;;;;14.10;2.80;;;;;;;34.22;22.17;99796.38;5580472;31;33666;-70
2023/06/02 14:24:21;;;;;;;15.05;2.58;;;;;;;32.67;24.06;99813.78;5580173;31;34171;-69
2023/06/02 14:27:25;;;;;;;4.85;2.40;;;;;;;31.64;23.48;99811.06;5575739;31;33894;-71